createdAt,value
2022-08-17T00:00:52.456Z,1.04
2022-08-17T00:01:53.275Z,1.04
2022-08-17T00:02:52.757Z,1.04
2022-08-17T00:03:52.814Z,1.04
2022-08-17T00:04:52.966Z,1.04
2022-08-17T00:05:53.120Z,1.04
2022-08-17T00:06:53.222Z,1.04
2022-08-17T00:07:53.320Z,1.04
2022-08-17T00:08:53.479Z,1.04
2022-08-17T00:09:53.576Z,1.04
2022-08-17T00:10:53.679Z,1.04
2022-08-17T00:12:03.877Z,1.04
2022-08-17T00:12:54.070Z,1.04
2022-08-17T00:13:55.989Z,1.04
2022-08-17T00:14:54.272Z,1.04
2022-08-17T00:15:54.344Z,1.04
2022-08-17T00:16:57.175Z,1.04
2022-08-17T00:17:54.594Z,1.04
2022-08-17T00:18:58.420Z,1.04
2022-08-17T00:19:54.863Z,1.04
2022-08-17T00:20:54.948Z,1.04
2022-08-17T00:22:30.068Z,1.04
2022-08-17T00:22:55.161Z,1.04
2022-08-17T00:23:55.258Z,1.04
2022-08-17T00:24:55.418Z,1.04
2022-08-17T00:25:55.477Z,1.04
2022-08-17T00:26:55.607Z,1.04
2022-08-17T00:27:55.762Z,1.04
2022-08-17T00:28:55.915Z,1.04
2022-08-17T00:29:56.067Z,1.04
2022-08-17T00:30:56.169Z,1.04
2022-08-17T00:31:56.321Z,1.04
2022-08-17T00:33:10.322Z,1.04
2022-08-17T00:33:56.529Z,1.04
2022-08-17T00:34:56.631Z,1.04
2022-08-17T00:35:56.781Z,1.04
2022-08-17T00:36:56.885Z,1.04
2022-08-17T00:37:56.986Z,1.04
2022-08-17T00:38:57.142Z,1.04
2022-08-17T00:39:57.361Z,1.04
2022-08-17T00:40:59.119Z,1.04
2022-08-17T00:41:57.561Z,1.04
2022-08-17T00:42:57.644Z,1.04
2022-08-17T00:43:57.741Z,1.04
2022-08-17T00:44:57.867Z,1.04
2022-08-17T00:45:57.997Z,1.04
2022-08-17T00:46:58.149Z,1.04
2022-08-17T00:47:58.251Z,1.04
2022-08-17T00:48:58.352Z,1.04
2022-08-17T00:49:58.458Z,1.04
2022-08-17T00:50:58.556Z,1.04
2022-08-17T00:51:58.706Z,1.04
2022-08-17T00:52:58.824Z,1.04
2022-08-17T00:53:58.964Z,1.04
2022-08-17T00:54:59.067Z,1.04
2022-08-17T00:55:59.222Z,1.04
2022-08-17T00:56:59.318Z,1.04
2022-08-17T00:57:59.475Z,1.04
2022-08-17T00:58:59.625Z,1.04
2022-08-17T01:00:02.058Z,1.04
2022-08-17T01:00:59.931Z,1.04
2022-08-17T01:02:00.027Z,1.04
2022-08-17T01:03:00.181Z,1.04
2022-08-17T01:04:00.286Z,1.04
2022-08-17T01:05:00.386Z,1.04
2022-08-17T01:06:00.485Z,1.04
2022-08-17T01:07:00.640Z,1.04
2022-08-17T01:08:00.791Z,1.04
2022-08-17T01:09:00.893Z,1.04
2022-08-17T01:10:00.998Z,1.04
2022-08-17T01:11:01.890Z,1.04
2022-08-17T01:12:01.203Z,1.04
2022-08-17T01:13:01.334Z,1.04
2022-08-17T01:14:01.430Z,1.04
2022-08-17T01:15:01.568Z,1.04
2022-08-17T01:16:01.713Z,1.04
2022-08-17T01:17:01.861Z,1.04
2022-08-17T01:18:01.961Z,1.04
2022-08-17T01:19:02.067Z,1.04
2022-08-17T01:20:02.168Z,1.04
2022-08-17T01:21:02.267Z,1.04
2022-08-17T01:22:02.367Z,1.04
2022-08-17T01:23:02.527Z,1.04
2022-08-17T01:24:02.623Z,1.04
2022-08-17T01:25:02.722Z,1.04
2022-08-17T01:26:02.876Z,1.04
2022-08-17T01:27:02.974Z,1.04
2022-08-17T01:28:03.082Z,1.04
2022-08-17T01:29:03.228Z,1.04
2022-08-17T01:30:03.332Z,1.04
2022-08-17T01:31:03.435Z,1.04
2022-08-17T01:32:03.539Z,1.04
2022-08-17T01:33:03.720Z,1.04
2022-08-17T01:34:03.793Z,1.04
2022-08-17T01:35:03.896Z,1.04
2022-08-17T01:36:04.000Z,1.04
2022-08-17T01:37:04.102Z,1.04
2022-08-17T01:38:04.259Z,1.04
2022-08-17T01:39:04.359Z,1.04
2022-08-17T01:40:04.579Z,1.04
2022-08-17T01:41:04.605Z,1.04
2022-08-17T01:42:04.758Z,1.04
2022-08-17T01:43:04.863Z,1.04
2022-08-17T01:44:04.971Z,1.04
2022-08-17T01:45:05.119Z,1.04
2022-08-17T01:46:05.215Z,1.04
2022-08-17T01:47:05.367Z,1.04
2022-08-17T01:48:05.517Z,1.04
2022-08-17T01:49:05.625Z,1.04
2022-08-17T01:50:05.776Z,1.04
2022-08-17T01:51:06.269Z,1.04
2022-08-17T01:52:06.077Z,1.04
2022-08-17T01:53:06.226Z,1.04
2022-08-17T01:54:06.832Z,1.04
2022-08-17T01:55:06.482Z,1.04
2022-08-17T01:56:07.019Z,1.04
2022-08-17T01:57:06.745Z,1.04
2022-08-17T01:58:07.183Z,1.04
2022-08-17T01:59:06.943Z,1.04
2022-08-17T02:00:07.039Z,1.04
2022-08-17T02:01:07.219Z,1.04
2022-08-17T02:02:07.251Z,1.04
2022-08-17T02:03:07.350Z,1.04
2022-08-17T02:04:07.449Z,1.04
2022-08-17T02:05:07.599Z,1.04
2022-08-17T02:06:11.955Z,1.04
2022-08-17T02:07:07.904Z,1.04
2022-08-17T02:08:08.006Z,1.04
2022-08-17T02:09:08.157Z,1.04
2022-08-17T02:10:10.997Z,1.04
2022-08-17T02:11:08.983Z,1.04
2022-08-17T02:12:37.445Z,1.04
2022-08-17T02:13:08.617Z,1.04
2022-08-17T02:14:08.769Z,1.04
2022-08-17T02:15:08.879Z,1.04
2022-08-17T02:16:08.985Z,1.04
2022-08-17T02:17:09.131Z,1.04
2022-08-17T02:18:09.235Z,1.04
2022-08-17T02:19:09.329Z,1.04
2022-08-17T02:20:09.482Z,1.04
2022-08-17T02:21:09.583Z,1.04
2022-08-17T02:22:09.685Z,1.04
2022-08-17T02:23:09.787Z,1.04
2022-08-17T02:24:09.938Z,1.04
2022-08-17T02:25:10.039Z,1.04
2022-08-17T02:26:10.198Z,1.04
2022-08-17T02:27:10.294Z,1.04
2022-08-17T02:28:10.448Z,1.04
2022-08-17T02:29:10.552Z,1.04
2022-08-17T02:30:59.003Z,1.04
2022-08-17T02:31:10.750Z,1.04
2022-08-17T02:32:10.856Z,1.04
2022-08-17T02:33:11.012Z,1.04
2022-08-17T02:34:11.108Z,1.04
2022-08-17T02:35:11.619Z,1.04
2022-08-17T02:36:11.416Z,1.04
2022-08-17T02:37:12.018Z,1.04
2022-08-17T02:38:11.724Z,1.04
2022-08-17T02:39:11.850Z,1.04
2022-08-17T02:40:12.023Z,1.04
2022-08-17T02:41:12.120Z,1.04
2022-08-17T02:42:12.226Z,1.04
2022-08-17T02:43:12.328Z,1.04
2022-08-17T02:44:12.474Z,1.04
2022-08-17T02:45:12.628Z,1.04
2022-08-17T02:46:12.734Z,1.04
2022-08-17T02:47:12.833Z,1.04
2022-08-17T02:48:12.938Z,1.04
2022-08-17T02:49:13.041Z,1.04
2022-08-17T02:50:13.188Z,1.04
2022-08-17T02:51:13.294Z,1.04
2022-08-17T02:52:13.390Z,1.04
2022-08-17T02:53:13.497Z,1.04
2022-08-17T02:54:39.606Z,1.04
2022-08-17T02:55:13.754Z,1.04
2022-08-17T02:56:13.854Z,1.04
2022-08-17T02:57:13.954Z,1.04
2022-08-17T02:58:14.109Z,1.04
2022-08-17T02:59:14.268Z,1.04
2022-08-17T03:00:14.362Z,1.04
2022-08-17T03:01:14.541Z,1.04
2022-08-17T03:02:14.613Z,1.04
2022-08-17T03:03:14.714Z,1.04
2022-08-17T03:04:14.817Z,1.04
2022-08-17T03:05:14.919Z,1.04
2022-08-17T03:06:15.071Z,1.04
2022-08-17T03:07:15.183Z,1.04
2022-08-17T03:08:15.324Z,1.04
2022-08-17T03:09:15.428Z,1.04
2022-08-17T03:10:15.578Z,1.04
2022-08-17T03:11:15.678Z,1.04
2022-08-17T03:12:15.786Z,1.04
2022-08-17T03:13:15.935Z,1.04
2022-08-17T03:14:16.086Z,1.04
2022-08-17T03:15:16.189Z,1.04
2022-08-17T03:16:16.287Z,2
2022-08-17T03:17:17.309Z,2
2022-08-17T03:18:19.022Z,2
2022-08-17T03:19:16.603Z,2
2022-08-17T03:20:16.706Z,2
2022-08-17T03:21:16.815Z,3.04
2022-08-17T03:22:35.760Z,3.04
2022-08-17T03:23:17.057Z,3.04
2022-08-17T03:24:17.158Z,4
2022-08-17T03:25:18.056Z,5.04
2022-08-17T03:26:17.408Z,6
2022-08-17T03:27:17.511Z,7.04
2022-08-17T03:28:17.613Z,8
2022-08-17T03:29:17.769Z,9.04
2022-08-17T03:30:17.864Z,11.04
2022-08-17T03:31:18.027Z,13.04
2022-08-17T03:32:18.134Z,15.04
2022-08-17T03:33:18.272Z,18
2022-08-17T03:34:18.426Z,21.04
2022-08-17T03:35:18.580Z,25.04
2022-08-17T03:36:18.689Z,30
2022-08-17T03:37:18.834Z,35.04
2022-08-17T03:38:18.931Z,41.04
2022-08-17T03:39:19.093Z,48
2022-08-17T03:40:34.349Z,99.04
2022-08-17T03:41:19.343Z,117.04
2022-08-17T03:42:31.168Z,133.04
2022-08-17T03:43:19.622Z,149.04
2022-08-17T03:44:19.749Z,169.12
2022-08-17T03:45:19.848Z,189.12
2022-08-17T03:46:27.425Z,213.12
2022-08-17T03:47:20.105Z,237.12
2022-08-17T03:48:20.205Z,264
2022-08-17T03:49:20.360Z,290.08
2022-08-17T03:50:20.505Z,317.12
2022-08-17T03:51:20.608Z,348.16
2022-08-17T03:52:20.761Z,382.08
2022-08-17T03:53:20.867Z,416
2022-08-17T03:54:20.966Z,452.16
2022-08-17T03:55:21.067Z,488
2022-08-17T03:56:21.219Z,528
2022-08-17T03:57:21.370Z,568
2022-08-17T03:58:21.476Z,607.04
2022-08-17T03:59:22.476Z,654.08
2022-08-17T04:00:21.728Z,703.36
2022-08-17T04:01:21.894Z,755.2
2022-08-17T04:02:22.042Z,813.44
2022-08-17T04:03:22.132Z,872.32
2022-08-17T04:04:26.169Z,934.4
2022-08-17T04:05:22.386Z,998.4
2022-08-17T04:06:22.537Z,1067.52
2022-08-17T04:07:22.644Z,1138.56
2022-08-17T04:08:22.743Z,1215.36
2022-08-17T04:09:22.892Z,1291.52
2022-08-17T04:10:26.341Z,1432.32
2022-08-17T04:11:23.146Z,1529.6
2022-08-17T04:12:23.249Z,1637.12
2022-08-17T04:13:24.154Z,1749.76
2022-08-17T04:14:23.513Z,1889.28
2022-08-17T04:15:23.609Z,2016
2022-08-17T04:16:23.712Z,2131.2
2022-08-17T04:17:23.861Z,2268.16
2022-08-17T04:18:23.963Z,2403.84
2022-08-17T04:19:24.066Z,2543.36
2022-08-17T04:20:24.219Z,2677.76
2022-08-17T04:21:24.320Z,2823.68
2022-08-17T04:22:31.590Z,2959.36
2022-08-17T04:23:24.574Z,3110.4
2022-08-17T04:24:24.721Z,3258.88
2022-08-17T04:25:24.880Z,3432.96
2022-08-17T04:26:52.377Z,3671.04
2022-08-17T04:27:25.086Z,4441.6
2022-08-17T04:28:25.235Z,5355.52
2022-08-17T04:29:25.337Z,5959.68
2022-08-17T04:30:25.488Z,6609.92
2022-08-17T04:31:25.641Z,6589.44
2022-08-17T04:32:58.694Z,6400
2022-08-17T04:33:25.944Z,6589.44
2022-08-17T04:34:26.046Z,6855.68
2022-08-17T04:35:26.262Z,7659.52
2022-08-17T04:36:26.348Z,8560.64
2022-08-17T04:37:26.451Z,9661.439
2022-08-17T04:38:26.615Z,10639.359
2022-08-17T04:39:27.347Z,11141.12
2022-08-17T04:40:27.367Z,11724.8
2022-08-17T04:41:27.013Z,12226.56
2022-08-17T04:42:27.766Z,12595.2
2022-08-17T04:43:27.271Z,12881.92
2022-08-17T04:44:37.320Z,14254.08
2022-08-17T04:45:27.519Z,14899.199
2022-08-17T04:46:27.664Z,15370.239
2022-08-17T04:47:27.821Z,16056.319
2022-08-17T04:48:35.846Z,16783.36
2022-08-17T04:49:28.023Z,17438.72
2022-08-17T04:50:28.123Z,18227.2
2022-08-17T04:51:28.279Z,19097.6
2022-08-17T04:52:32.188Z,19814.4
2022-08-17T04:53:28.528Z,20377.6
2022-08-17T04:54:28.636Z,21217.28
2022-08-17T04:55:28.781Z,22077.44
2022-08-17T04:56:28.883Z,22896.64
2022-08-17T04:57:29.039Z,23695.36
2022-08-17T04:58:29.197Z,24453.12
2022-08-17T04:59:29.299Z,25251.84
2022-08-17T05:00:29.395Z,25866.24
2022-08-17T05:01:29.533Z,26828.8
2022-08-17T05:02:29.606Z,27668.48
2022-08-17T05:03:29.759Z,28487.68
2022-08-17T05:04:33.365Z,29286.4
2022-08-17T05:05:30.013Z,29962.24
2022-08-17T05:06:30.104Z,30556.16
2022-08-17T05:07:31.647Z,31129.6
2022-08-17T05:08:30.358Z,31887.36
2022-08-17T05:09:30.461Z,32706.56
2022-08-17T05:10:30.563Z,33484.8
2022-08-17T05:11:30.716Z,34365.44
2022-08-17T05:12:30.871Z,34856.96
2022-08-17T05:13:31.019Z,33402.88
2022-08-17T05:14:32.291Z,32952.32
2022-08-17T05:15:32.976Z,36536.32
2022-08-17T05:16:31.380Z,37867.52
2022-08-17T05:17:31.534Z,38297.6
2022-08-17T05:18:31.638Z,38666.24
2022-08-17T05:19:31.755Z,36188.16
2022-08-17T05:20:31.936Z,36556.8
2022-08-17T05:21:32.042Z,40816.64
2022-08-17T05:22:32.140Z,41799.68
2022-08-17T05:23:35.581Z,42639.36
2022-08-17T05:24:38.251Z,43335.68
2022-08-17T05:25:32.743Z,43950.08
2022-08-17T05:26:32.753Z,44318.72
2022-08-17T05:27:35.360Z,44810.24
2022-08-17T05:28:33.001Z,45219.84
2022-08-17T05:29:33.687Z,45506.56
2022-08-17T05:30:33.205Z,45875.2
2022-08-17T05:31:33.317Z,45875.2
2022-08-17T05:32:37.709Z,46161.92
2022-08-17T05:33:33.557Z,40448
2022-08-17T05:34:33.714Z,37928.96
2022-08-17T05:35:33.874Z,36106.24
2022-08-17T05:36:37.703Z,32911.36
2022-08-17T05:37:34.097Z,31416.32
2022-08-17T05:38:34.204Z,33894.4
2022-08-17T05:39:34.319Z,34631.68
2022-08-17T05:40:34.376Z,39874.56
2022-08-17T05:41:34.474Z,42475.52
2022-08-17T05:42:34.628Z,47882.24
2022-08-17T05:43:34.783Z,51240.96
2022-08-17T05:44:34.880Z,52838.4
2022-08-17T05:45:39.897Z,53166.08
2022-08-17T05:46:35.136Z,55541.76
2022-08-17T05:47:35.236Z,56770.56
2022-08-17T05:48:39.243Z,57712.64
2022-08-17T05:49:35.491Z,55869.44
2022-08-17T05:50:35.598Z,52920.32
2022-08-17T05:51:35.743Z,54558.72
2022-08-17T05:52:35.944Z,54108.16
2022-08-17T05:53:36.049Z,53002.24
2022-08-17T05:54:36.155Z,53862.4
2022-08-17T05:55:36.308Z,53452.8
2022-08-17T05:56:36.451Z,54681.6
2022-08-17T05:57:36.614Z,54435.84
2022-08-17T05:58:36.710Z,50094.08
2022-08-17T05:59:36.862Z,56524.8
2022-08-17T06:00:37.014Z,58572.8
2022-08-17T06:01:37.095Z,57057.28
2022-08-17T06:02:37.169Z,49152
2022-08-17T06:03:37.273Z,49152
2022-08-17T06:04:37.379Z,50094.08
2022-08-17T06:05:37.473Z,49643.52
2022-08-17T06:06:37.573Z,51527.68
2022-08-17T06:07:37.685Z,47267.84
2022-08-17T06:08:37.786Z,46325.76
2022-08-17T06:09:37.926Z,48824.32
2022-08-17T06:10:38.034Z,52551.68
2022-08-17T06:11:38.183Z,50176
2022-08-17T06:12:38.301Z,51609.6
2022-08-17T06:13:38.390Z,50339.84
2022-08-17T06:14:38.539Z,48496.64
2022-08-17T06:15:38.642Z,39649.28
2022-08-17T06:16:38.739Z,43704.32
2022-08-17T06:17:38.854Z,51445.76
2022-08-17T06:18:38.948Z,49233.92
2022-08-17T06:19:39.056Z,42352.64
2022-08-17T06:20:39.155Z,42024.96
2022-08-17T06:21:39.264Z,46366.72
2022-08-17T06:22:39.408Z,48906.24
2022-08-17T06:23:39.516Z,50012.16
2022-08-17T06:24:39.614Z,55255.04
2022-08-17T06:25:39.762Z,55623.68
2022-08-17T06:26:42.906Z,54599.68
2022-08-17T06:27:40.016Z,56279.04
2022-08-17T06:28:40.114Z,57835.52
2022-08-17T06:29:40.273Z,54517.76
2022-08-17T06:30:58.711Z,59555.84
2022-08-17T06:31:40.527Z,65576.96
2022-08-17T06:32:40.675Z,71188.48
2022-08-17T06:33:40.832Z,69181.44
2022-08-17T06:34:40.979Z,74219.52
2022-08-17T06:35:41.083Z,72622.08
2022-08-17T06:36:41.179Z,73400.32
2022-08-17T06:37:41.337Z,70082.56
2022-08-17T06:38:41.439Z,66928.64
2022-08-17T06:39:41.578Z,66273.28
2022-08-17T06:40:41.641Z,68321.28
2022-08-17T06:41:41.810Z,63856.64
2022-08-17T06:42:54.259Z,67010.56
2022-08-17T06:43:45.058Z,70860.8
2022-08-17T06:44:50.322Z,75612.16
2022-08-17T06:45:42.348Z,76144.64
2022-08-17T06:46:42.507Z,77578.24
2022-08-17T06:47:42.603Z,77742.08
2022-08-17T06:48:42.755Z,79216.64
2022-08-17T06:49:42.905Z,81592.32
2022-08-17T06:50:43.059Z,81018.88
2022-08-17T06:51:43.161Z,78807.04
2022-08-17T06:52:46.219Z,74260.48
2022-08-17T06:53:43.419Z,71311.36
2022-08-17T06:54:43.522Z,69509.12
2022-08-17T06:55:43.674Z,59514.88
2022-08-17T06:56:52.625Z,64225.28
2022-08-17T06:57:43.875Z,69754.88
2022-08-17T06:58:44.028Z,82329.6
2022-08-17T06:59:54.468Z,85442.55
2022-08-17T07:00:44.387Z,85442.55
2022-08-17T07:01:44.434Z,83722.24
2022-08-17T07:02:51.134Z,83394.56
2022-08-17T07:03:44.642Z,78438.4
2022-08-17T07:04:44.791Z,84787.2
2022-08-17T07:05:44.939Z,82288.64
2022-08-17T07:06:45.051Z,81715.2
2022-08-17T07:07:45.197Z,85688.32
2022-08-17T07:08:45.296Z,82903.04
2022-08-17T07:09:45.451Z,81797.12
2022-08-17T07:10:45.612Z,77701.12
2022-08-17T07:11:45.758Z,70860.8
2022-08-17T07:12:45.932Z,72949.76
2022-08-17T07:13:49.225Z,71639.04
2022-08-17T07:14:46.164Z,67461.12
2022-08-17T07:15:46.262Z,71761.92
2022-08-17T07:16:46.372Z,70287.36
2022-08-17T07:17:48.336Z,67338.24
2022-08-17T07:18:46.623Z,71147.52
2022-08-17T07:19:46.770Z,73523.2
2022-08-17T07:20:46.925Z,75530.24
2022-08-17T07:21:47.068Z,75939.84
2022-08-17T07:22:50.532Z,79175.68
2022-08-17T07:23:47.278Z,72826.88
2022-08-17T07:24:47.426Z,80445.44
2022-08-17T07:25:47.529Z,76759.04
2022-08-17T07:26:47.687Z,83025.92
2022-08-17T07:27:47.783Z,86507.52
2022-08-17T07:28:47.885Z,86507.52
2022-08-17T07:29:47.990Z,86425.6
2022-08-17T07:30:48.138Z,88555.52
2022-08-17T07:31:48.238Z,90275.84
2022-08-17T07:32:48.394Z,89128.96
2022-08-17T07:33:48.540Z,90112
2022-08-17T07:34:48.705Z,87736.32
2022-08-17T07:35:48.847Z,84787.2
2022-08-17T07:36:48.956Z,88145.92
2022-08-17T07:37:49.205Z,84787.2
2022-08-17T07:38:49.212Z,84705.28
2022-08-17T07:39:58.979Z,81797.12
2022-08-17T07:40:49.508Z,80691.2
2022-08-17T07:41:52.968Z,83066.88
2022-08-17T07:42:49.710Z,82698.24
2022-08-17T07:43:49.818Z,80814.08
2022-08-17T07:44:49.912Z,84049.92
2022-08-17T07:45:50.034Z,82042.88
2022-08-17T07:46:50.170Z,82083.84
2022-08-17T07:47:50.453Z,78970.88
2022-08-17T07:48:50.434Z,80035.84
2022-08-17T07:49:50.529Z,78315.52
2022-08-17T07:50:50.852Z,71966.72
2022-08-17T07:51:50.732Z,75161.6
2022-08-17T07:52:52.333Z,82616.32
2022-08-17T07:53:50.939Z,80527.36
2022-08-17T07:54:51.068Z,82452.48
2022-08-17T07:55:51.137Z,81960.96
2022-08-17T07:56:51.242Z,79790.08
2022-08-17T07:57:51.449Z,79298.56
2022-08-17T07:58:51.492Z,77045.76
2022-08-17T07:59:51.649Z,74465.28
2022-08-17T08:00:51.749Z,73482.24
2022-08-17T08:01:56.205Z,72540.16
2022-08-17T08:02:51.951Z,73195.52
2022-08-17T08:03:52.708Z,78561.28
2022-08-17T08:05:00.863Z,79994.88
2022-08-17T08:05:52.352Z,79953.92
2022-08-17T08:06:52.510Z,80281.6
2022-08-17T08:07:52.803Z,78315.52
2022-08-17T08:08:52.812Z,78602.24
2022-08-17T08:09:52.913Z,79749.12
2022-08-17T08:10:53.015Z,78151.68
2022-08-17T08:11:53.120Z,77783.04
2022-08-17T08:12:53.780Z,78520.32
2022-08-17T08:13:53.376Z,80035.84
2022-08-17T08:14:53.475Z,81633.28
2022-08-17T08:15:54.584Z,81838.08
2022-08-17T08:16:53.736Z,83025.92
2022-08-17T08:17:53.886Z,80609.28
2022-08-17T08:18:56.629Z,81387.52
2022-08-17T08:19:54.096Z,83722.24
2022-08-17T08:20:54.270Z,84623.36
2022-08-17T08:21:54.393Z,80568.32
2022-08-17T08:22:54.525Z,82042.88
2022-08-17T08:23:54.590Z,81879.04
2022-08-17T08:24:54.746Z,82534.4
2022-08-17T08:25:54.846Z,82821.12
2022-08-17T08:26:54.999Z,81960.96
2022-08-17T08:27:55.100Z,84377.6
2022-08-17T08:28:55.247Z,86589.44
2022-08-17T08:29:55.367Z,88555.52
2022-08-17T08:30:55.506Z,92733.44
2022-08-17T08:31:55.611Z,81059.84
2022-08-17T08:32:57.284Z,80732.16
2022-08-17T08:33:55.811Z,80855.04
2022-08-17T08:35:01.328Z,84213.76
2022-08-17T08:35:56.068Z,83681.28
2022-08-17T08:36:57.188Z,86999.04
2022-08-17T08:37:56.273Z,90603.52
2022-08-17T08:38:56.376Z,88637.44
2022-08-17T08:39:56.581Z,91914.23
2022-08-17T08:40:56.635Z,91504.64
2022-08-17T08:41:56.738Z,92078.08
2022-08-17T08:42:56.880Z,86425.6
2022-08-17T08:43:56.983Z,74178.56
2022-08-17T08:44:59.188Z,81387.52
2022-08-17T08:45:57.283Z,83517.44
2022-08-17T08:46:57.385Z,84131.84
2022-08-17T08:47:57.541Z,88637.44
2022-08-17T08:48:58.328Z,88719.36
2022-08-17T08:50:04.635Z,89128.96
2022-08-17T08:50:57.945Z,88227.84
2022-08-17T08:51:58.051Z,88637.44
2022-08-17T08:52:58.148Z,86753.28
2022-08-17T08:53:58.259Z,88719.36
2022-08-17T08:54:58.359Z,88473.6
2022-08-17T08:55:58.508Z,86507.52
2022-08-17T08:57:19.703Z,86589.44
2022-08-17T08:57:58.760Z,86507.52
2022-08-17T08:58:58.861Z,90030.08
2022-08-17T08:59:59.017Z,88637.44
2022-08-17T09:00:59.187Z,86671.36
2022-08-17T09:01:59.267Z,84623.36
2022-08-17T09:02:59.378Z,81797.12
2022-08-17T09:04:18.117Z,82370.56
2022-08-17T09:05:59.720Z,81223.68
2022-08-17T09:06:59.826Z,78151.68
2022-08-17T09:07:59.933Z,73605.12
2022-08-17T09:09:00.104Z,69918.72
2022-08-17T09:10:00.196Z,77660.16
2022-08-17T09:11:00.292Z,81059.84
2022-08-17T09:12:01.735Z,83681.28
2022-08-17T09:13:09.235Z,81264.64
2022-08-17T09:14:00.640Z,77004.8
2022-08-17T09:15:00.792Z,30781.44
2022-08-17T09:16:00.903Z,43663.36
2022-08-17T09:17:01.053Z,74547.2
2022-08-17T09:18:28.734Z,83763.2
2022-08-17T09:20:01.454Z,89784.32
2022-08-17T09:21:01.557Z,92323.84
2022-08-17T09:22:01.710Z,93061.12
2022-08-17T09:23:01.808Z,95682.55
2022-08-17T09:24:01.917Z,96583.68
2022-08-17T09:25:02.059Z,96419.84
2022-08-17T09:26:02.166Z,94535.68
2022-08-17T09:27:02.264Z,94535.68
2022-08-17T09:28:02.370Z,93143.04
2022-08-17T09:29:02.536Z,94371.84
2022-08-17T09:30:02.625Z,93716.48
2022-08-17T09:31:02.771Z,95846.4
2022-08-17T09:32:02.923Z,96337.91
2022-08-17T09:33:03.075Z,94617.6
2022-08-17T09:34:03.179Z,94126.08
2022-08-17T09:35:03.288Z,94535.68
2022-08-17T09:36:03.439Z,92078.08
2022-08-17T09:37:03.535Z,92323.84
2022-08-17T09:38:03.797Z,92323.84
2022-08-17T09:39:03.749Z,90931.2
2022-08-17T09:40:03.913Z,37621.76
2022-08-17T09:41:04.049Z,18483.2
2022-08-17T09:42:04.192Z,57589.76
2022-08-17T09:43:04.296Z,19363.84
2022-08-17T09:44:04.424Z,20183.04
2022-08-17T09:45:04.498Z,67420.16
2022-08-17T09:46:04.605Z,27996.16
2022-08-17T09:47:04.707Z,18780.16
2022-08-17T09:48:04.805Z,19200
2022-08-17T09:49:04.910Z,19138.56
2022-08-17T09:50:05.008Z,19865.6
2022-08-17T09:51:06.632Z,85442.55
2022-08-17T09:52:05.316Z,88309.76
2022-08-17T09:53:05.415Z,88227.84
2022-08-17T09:54:21.294Z,87982.08
2022-08-17T09:55:05.620Z,86179.84
2022-08-17T09:56:05.722Z,83312.64
2022-08-17T09:57:18.375Z,82411.52
2022-08-17T09:58:05.933Z,78151.68
2022-08-17T09:59:06.039Z,79339.52
2022-08-17T10:00:06.131Z,80240.64
2022-08-17T10:01:06.298Z,79380.48
2022-08-17T10:02:06.334Z,82657.28
2022-08-17T10:03:06.493Z,82984.96
2022-08-17T10:04:06.594Z,83271.68
2022-08-17T10:05:06.698Z,81428.48
2022-08-17T10:06:06.904Z,80117.76
2022-08-17T10:07:06.950Z,76963.84
2022-08-17T10:08:07.049Z,76390.4
2022-08-17T10:09:07.153Z,80158.72
2022-08-17T10:10:10.856Z,79134.72
2022-08-17T10:11:07.403Z,81018.88
2022-08-17T10:12:07.501Z,82247.68
2022-08-17T10:13:09.564Z,80855.04
2022-08-17T10:14:07.862Z,80609.28
2022-08-17T10:15:09.400Z,79052.8
2022-08-17T10:16:08.009Z,77537.28
2022-08-17T10:17:08.113Z,37130.24
2022-08-17T10:18:08.265Z,32358.4
2022-08-17T10:19:08.416Z,78479.36
2022-08-17T10:20:08.580Z,33198.08
2022-08-17T10:21:08.727Z,80814.08
2022-08-17T10:22:14.409Z,80568.32
2022-08-17T10:23:09.025Z,79667.2
2022-08-17T10:24:09.177Z,80158.72
2022-08-17T10:25:21.971Z,81346.56
2022-08-17T10:26:09.434Z,26255.36
2022-08-17T10:27:09.535Z,69017.6
2022-08-17T10:28:12.986Z,83394.56
2022-08-17T10:29:09.743Z,83394.56
2022-08-17T10:30:09.842Z,82452.48
2022-08-17T10:31:33.527Z,79708.16
2022-08-17T10:32:10.039Z,80936.96
2022-08-17T10:33:10.193Z,78192.64
2022-08-17T10:34:10.293Z,24657.92
2022-08-17T10:35:10.396Z,19804.16
2022-08-17T10:36:10.843Z,19210.24
2022-08-17T10:37:10.655Z,18616.32
2022-08-17T10:38:10.755Z,18739.2
2022-08-17T10:39:10.858Z,25415.68
2022-08-17T10:40:10.986Z,19220.48
2022-08-17T10:41:11.114Z,19015.68
2022-08-17T10:42:11.213Z,19200
2022-08-17T10:43:11.315Z,19415.04
2022-08-17T10:44:36.882Z,20643.84
2022-08-17T10:45:11.569Z,22528
2022-08-17T10:46:30.750Z,22999.04
2022-08-17T10:47:11.856Z,22712.32
2022-08-17T10:48:12.285Z,24494.08
2022-08-17T10:49:12.127Z,69140.48
2022-08-17T10:50:12.246Z,69918.72
2022-08-17T10:51:12.331Z,69713.92
2022-08-17T10:52:12.483Z,64184.32
2022-08-17T10:53:15.485Z,72499.2
2022-08-17T10:54:12.782Z,72417.28
2022-08-17T10:55:12.891Z,72048.64
2022-08-17T10:56:12.986Z,71557.12
2022-08-17T10:57:13.139Z,69509.12
2022-08-17T10:58:13.252Z,69140.48
2022-08-17T10:59:13.392Z,68321.28
2022-08-17T11:00:13.498Z,68239.36
2022-08-17T11:01:13.746Z,67870.72
2022-08-17T11:02:13.793Z,68608
2022-08-17T11:03:13.905Z,68403.2
2022-08-17T11:04:14.060Z,22241.28
2022-08-17T11:05:14.160Z,29921.28
2022-08-17T11:06:14.260Z,64593.92
2022-08-17T11:07:14.364Z,64675.84
2022-08-17T11:08:14.511Z,64552.96
2022-08-17T11:09:14.619Z,64880.64
2022-08-17T11:10:14.713Z,64757.76
2022-08-17T11:11:14.822Z,64716.8
2022-08-17T11:12:14.970Z,64798.72
2022-08-17T11:13:15.125Z,64921.6
2022-08-17T11:14:15.230Z,61399.04
2022-08-17T11:15:15.375Z,37642.24
2022-08-17T11:16:15.485Z,24698.88
2022-08-17T11:17:15.628Z,65003.52
2022-08-17T11:18:15.729Z,64880.64
2022-08-17T11:19:15.841Z,64716.8
2022-08-17T11:20:15.987Z,63733.76
2022-08-17T11:21:16.137Z,63160.32
2022-08-17T11:22:16.293Z,63037.44
2022-08-17T11:23:16.399Z,63365.12
2022-08-17T11:24:16.550Z,43786.24
2022-08-17T11:25:16.699Z,59965.44
2022-08-17T11:26:16.798Z,62259.2
2022-08-17T11:27:16.897Z,61317.12
2022-08-17T11:28:18.079Z,60784.64
2022-08-17T11:29:17.101Z,62259.2
2022-08-17T11:30:17.373Z,51077.12
2022-08-17T11:31:17.308Z,26009.6
2022-08-17T11:32:17.458Z,24678.4
2022-08-17T11:33:17.567Z,37724.16
2022-08-17T11:34:17.661Z,58286.08
2022-08-17T11:35:17.816Z,56811.52
2022-08-17T11:36:17.917Z,57180.16
2022-08-17T11:37:18.070Z,57753.6
2022-08-17T11:38:18.171Z,52674.56
2022-08-17T11:39:18.325Z,56975.36
2022-08-17T11:40:18.496Z,54845.44
2022-08-17T11:41:18.582Z,53821.44
2022-08-17T11:42:18.726Z,55828.48
2022-08-17T11:43:18.881Z,55869.44
2022-08-17T11:44:18.983Z,54968.32
2022-08-17T11:45:19.535Z,53862.4
2022-08-17T11:46:19.194Z,54681.6
2022-08-17T11:47:19.289Z,52428.8
2022-08-17T11:48:27.585Z,50012.16
2022-08-17T11:49:19.541Z,52756.48
2022-08-17T11:50:21.613Z,53862.4
2022-08-17T11:51:19.844Z,52756.48
2022-08-17T11:52:19.996Z,52510.72
2022-08-17T11:53:20.103Z,52019.2
2022-08-17T11:54:32.618Z,49848.32
2022-08-17T11:55:34.928Z,48947.2
2022-08-17T11:56:20.553Z,49725.44
2022-08-17T11:57:20.656Z,50626.56
2022-08-17T11:58:20.816Z,48455.68
2022-08-17T11:59:20.912Z,47800.32
2022-08-17T12:00:21.017Z,49848.32
2022-08-17T12:01:21.115Z,49397.76
2022-08-17T12:02:21.266Z,48332.8
2022-08-17T12:03:21.389Z,49233.92
2022-08-17T12:04:21.566Z,48865.28
2022-08-17T12:05:21.686Z,47923.2
2022-08-17T12:06:21.778Z,46039.04
2022-08-17T12:07:21.919Z,45465.6
2022-08-17T12:08:22.080Z,44810.24
2022-08-17T12:09:22.178Z,44072.96
2022-08-17T12:10:22.332Z,43294.72
2022-08-17T12:11:55.031Z,41984
2022-08-17T12:12:22.589Z,40898.56
2022-08-17T12:13:22.737Z,41205.76
2022-08-17T12:14:35.658Z,40919.04
2022-08-17T12:15:22.992Z,39649.28
2022-08-17T12:16:23.092Z,39383.04
2022-08-17T12:17:39.871Z,39444.48
2022-08-17T12:18:23.350Z,39342.08
2022-08-17T12:19:23.452Z,37888
2022-08-17T12:20:23.567Z,37765.12
2022-08-17T12:21:23.704Z,38113.28